Time;durP1;ratioP1;P1;durP2;ratioP2;P2;SDS_P1;SDS_P2;PMS_P1;PMS_P2;Temp;Humidity;BMP_temperature;BMP_pressure;BME280_temperature;BME280_humidity;BME280_pressure;Samples;Min_cycle;Max_cycle;Signal;HPM_P1;HPM_P2
2022/07/18 00:01:31;;;;;;;;;;;;;;;28.30;32.48;94954.00;5012993;28;7055;-62
2022/07/18 00:03:59;;;;;;;;;;;;;;;28.28;32.47;94959.28;4982711;28;7421;-63
2022/07/18 00:06:26;;;;;;;;;;;;;;;28.28;32.32;94962.06;5006859;28;9530;-62
2022/07/18 00:09:05;;;;;;;;;;;;;;;28.25;32.19;94961.06;5010726;28;7380;-62
2022/07/18 00:11:41;;;;;;;;;;;;;;;28.25;32.26;94954.81;5012532;28;7299;-63
2022/07/18 00:14:26;;;;;;;;;;;;;;;28.23;32.57;94957.34;4994977;28;7292;-62
2022/07/18 00:17:12;;;;;;;;;;;;;;;28.24;32.51;94959.59;4984250;28;7095;-62
2022/07/18 00:19:48;;;;;;;;;;;;;;;28.24;32.29;94953.28;5005741;28;9470;-63
2022/07/18 00:22:16;;;;;;;;;;;;;;;28.23;32.49;94957.34;4985724;28;7011;-63
2022/07/18 00:24:55;;;;;;;;;;;;;;;28.24;31.94;94953.28;4991304;28;9393;-63
2022/07/18 00:27:35;;;;;;;;;;;;;;;28.20;32.70;94947.28;5004719;28;7890;-63
2022/07/18 00:30:03;;;;;;;;;;;;;;;28.19;32.53;94954.06;4991486;28;7279;-63
2022/07/18 00:32:41;;;;;;;;;;;;;;;28.18;32.52;94947.81;4994553;28;7000;-63
2022/07/18 00:35:08;;;;;;;;;;;;;;;28.18;32.31;94947.81;5009558;28;7180;-63
2022/07/18 00:37:36;;;;;;;;;;;;;;;28.18;32.49;94947.06;5007466;28;9196;-63
2022/07/18 00:40:03;;;;;;;;;;;;;;;28.16;32.51;94942.06;4985321;28;7375;-62
2022/07/18 00:42:29;;;;;;;;;;;;;;;28.15;32.31;94939.78;4992168;28;9157;-62
2022/07/18 00:44:57;;;;;;;;;;;;;;;28.14;32.73;94935.53;4978278;28;7246;-63
2022/07/18 00:47:24;;;;;;;;;;;;;;;28.14;32.60;94932.78;5007453;28;6989;-62
2022/07/18 00:49:52;;;;;;;;;;;;;;;28.13;32.50;94936.78;5005171;28;7017;-63
2022/07/18 00:52:19;;;;;;;;;;;;;;;28.13;32.67;94939.56;4974047;28;7253;-62
2022/07/18 00:54:53;;;;;;;;;;;;;;;28.11;32.70;94937.31;4988618;28;7304;-62
2022/07/18 00:57:19;;;;;;;;;;;;;;;28.08;32.66;94926.50;5003522;28;7248;-63
2022/07/18 01:02:48;;;;;;;;;;;;;;;28.06;32.64;94929.03;5009040;28;7233;-63
2022/07/18 01:05:14;;;;;;;;;;;;;;;28.04;32.59;94931.56;4990429;28;7235;-63
2022/07/18 01:07:42;;;;;;;;;;;;;;;28.01;32.66;94936.13;4992172;28;6985;-63
2022/07/18 01:10:08;;;;;;;;;;;;;;;28.01;32.83;94927.09;5013354;28;7489;-63
2022/07/18 01:12:39;;;;;;;;;;;;;;;27.99;33.12;94929.63;4998058;28;9186;-63
2022/07/18 01:15:06;;;;;;;;;;;;;;;27.99;32.85;94926.84;4993861;28;7172;-63
2022/07/18 01:17:32;;;;;;;;;;;;;;;27.97;32.45;94923.81;4990565;28;7063;-63
2022/07/18 01:19:58;;;;;;;;;;;;;;;27.97;32.75;94932.13;4989239;28;8144;-63
2022/07/18 01:22:24;;;;;;;;;;;;;;;27.95;32.90;94929.13;4996624;28;6982;-63
2022/07/18 01:24:53;;;;;;;;;;;;;;;27.95;32.75;94924.31;4998427;28;9134;-63
2022/07/18 01:27:33;;;;;;;;;;;;;;;27.95;32.33;94927.06;5013216;28;8936;-63
2022/07/18 01:29:59;;;;;;;;;;;;;;;27.92;32.86;94925.34;5018450;28;9356;-63
2022/07/18 01:32:26;;;;;;;;;;;;;;;27.96;32.52;94936.13;5011908;28;7514;-63
2022/07/18 01:35:04;;;;;;;;;;;;;;;27.94;32.65;94942.19;4997684;28;9166;-63
2022/07/18 01:37:30;;;;;;;;;;;;;;;27.94;32.70;94933.88;5014941;28;6992;-63
2022/07/18 01:39:56;;;;;;;;;;;;;;;27.93;32.54;94937.16;5010262;28;7222;-63
2022/07/18 01:42:29;;;;;;;;;;;;;;;27.90;33.12;94947.25;4994629;28;7291;-63
2022/07/18 01:44:57;;;;;;;;;;;;;;;27.88;32.72;94941.47;4985833;28;9277;-63
2022/07/18 01:47:23;;;;;;;;;;;;;;;27.87;32.44;94950.25;5008136;28;7139;-63
2022/07/18 01:49:49;;;;;;;;;;;;;;;27.83;33.15;94945.03;4993906;28;7230;-63
2022/07/18 01:52:21;;;;;;;;;;;;;;;27.84;32.64;94943.75;4996705;28;8709;-63
2022/07/18 01:54:49;;;;;;;;;;;;;;;27.85;32.73;94956.31;4990991;28;9310;-63
2022/07/18 01:57:17;;;;;;;;;;;;;;;27.83;32.68;94949.78;5000842;28;7410;-63
2022/07/18 01:59:43;;;;;;;;;;;;;;;27.82;32.93;94957.31;4990238;28;9108;-63
2022/07/18 02:02:09;;;;;;;;;;;;;;;27.81;33.01;94952.31;4987837;28;7246;-63
2022/07/18 02:07:48;;;;;;;;;;;;;;;27.81;32.67;94957.84;5014992;28;7250;-63
2022/07/18 02:10:32;;;;;;;;;;;;;;;27.80;32.85;94954.31;4937963;28;7074;-63
2022/07/18 02:13:00;;;;;;;;;;;;;;;27.80;32.70;94959.09;4935804;29;9195;-63
2022/07/18 02:15:26;;;;;;;;;;;;;;;27.79;32.72;94949.31;4919943;29;9122;-63
2022/07/18 02:17:54;;;;;;;;;;;;;;;27.78;32.85;94948.56;4918896;29;7292;-63
2022/07/18 02:20:55;;;;;;;;;;;;;;;27.78;33.13;94951.31;4919888;28;9055;-63
2022/07/18 02:23:33;;;;;;;;;;;;;;;27.76;32.87;94950.31;4854604;29;7241;-63
2022/07/18 02:26:00;;;;;;;;;;;;;;;27.74;32.70;94950.09;4873257;29;8723;-62
2022/07/18 02:28:41;;;;;;;;;;;;;;;27.74;33.01;94944.56;4856470;29;7881;-63
2022/07/18 02:31:36;;;;;;;;;;;;;;;27.72;32.91;94953.38;4877694;29;7161;-63
2022/07/18 02:34:09;;;;;;;;;;;;;;;27.71;33.37;94945.59;4839373;29;7336;-63
2022/07/18 02:36:38;;;;;;;;;;;;;;;27.68;32.65;94941.84;4836723;29;7459;-63
2022/07/18 02:39:09;;;;;;;;;;;;;;;27.69;33.00;94939.84;4836527;29;8448;-63
2022/07/18 02:41:36;;;;;;;;;;;;;;;27.66;32.77;94944.38;4836966;29;7183;-63
2022/07/18 02:44:03;;;;;;;;;;;;;;;27.66;32.62;94947.13;4837430;29;9120;-63
2022/07/18 02:46:30;;;;;;;;;;;;;;;27.66;33.22;94949.16;4853253;29;7256;-63
2022/07/18 02:48:55;;;;;;;;;;;;;;;27.66;33.12;94944.38;4904910;29;7260;-63
2022/07/18 02:51:21;;;;;;;;;;;;;;;27.65;33.10;94948.38;4894172;29;7220;-63
2022/07/18 02:54:04;;;;;;;;;;;;;;;27.65;32.86;94942.84;4912842;29;7225;-63
2022/07/18 02:56:30;;;;;;;;;;;;;;;27.62;33.02;94954.94;4912841;29;7004;-63
2022/07/18 02:58:59;;;;;;;;;;;;;;;27.60;33.18;94957.44;4935632;28;7101;-63
2022/07/18 03:01:35;;;;;;;;;;;;;;;27.60;33.09;94952.69;4964913;28;9518;-63
2022/07/18 03:04:13;;;;;;;;;;;;;;;27.61;32.84;94954.19;4969083;28;6980;-63
2022/07/18 03:06:39;;;;;;;;;;;;;;;27.60;33.70;94958.22;4956311;28;6992;-63
2022/07/18 03:09:05;;;;;;;;;;;;;;;27.59;33.18;94951.19;4953094;28;7346;-63
2022/07/18 03:11:31;;;;;;;;;;;;;;;27.59;33.38;94950.44;4991495;28;7794;-63
2022/07/18 03:13:59;;;;;;;;;;;;;;;27.59;33.45;94953.97;4993552;28;7291;-63
2022/07/18 03:16:35;;;;;;;;;;;;;;;27.57;33.64;94964.78;5015063;28;7358;-63
2022/07/18 03:19:03;;;;;;;;;;;;;;;27.57;33.51;94958.50;4977855;28;7377;-63
2022/07/18 03:21:30;;;;;;;;;;;;;;;27.57;33.56;94959.25;4992261;28;7072;-63
2022/07/18 03:23:57;;;;;;;;;;;;;;;27.55;33.33;94953.47;4991879;28;9092;-63
2022/07/18 03:26:25;;;;;;;;;;;;;;;27.54;33.60;94959.50;4986867;28;8018;-63
2022/07/18 03:28:51;;;;;;;;;;;;;;;27.52;33.41;94954.50;4995473;28;7051;-63
2022/07/18 03:31:17;;;;;;;;;;;;;;;27.50;33.65;94954.25;4991943;28;7225;-63
2022/07/18 03:33:54;;;;;;;;;;;;;;;27.51;33.72;94955.75;4996373;28;8917;-63
2022/07/18 03:36:23;;;;;;;;;;;;;;;27.51;33.49;94960.53;4999994;28;9557;-63
2022/07/18 03:38:52;;;;;;;;;;;;;;;27.50;33.54;94959.78;5003906;28;7360;-64
2022/07/18 03:41:21;;;;;;;;;;;;;;;27.49;33.67;94958.25;4994591;28;9417;-63
2022/07/18 03:43:47;;;;;;;;;;;;;;;27.48;33.85;94959.53;5004616;28;9066;-63
2022/07/18 03:46:13;;;;;;;;;;;;;;;27.47;33.39;94952.50;4983217;28;8763;-63
2022/07/18 03:48:39;;;;;;;;;;;;;;;27.48;33.90;94961.53;4977484;28;7149;-63
2022/07/18 03:51:05;;;;;;;;;;;;;;;27.47;33.90;94966.31;5004900;28;7268;-63
2022/07/18 03:53:51;;;;;;;;;;;;;;;27.47;33.34;94960.78;4983253;28;7062;-63
2022/07/18 03:56:18;;;;;;;;;;;;;;;27.47;33.99;94962.81;4994957;28;7011;-63
2022/07/18 03:58:55;;;;;;;;;;;;;;;27.44;33.94;94964.59;5005110;28;6947;-63
2022/07/18 04:01:21;;;;;;;;;;;;;;;27.44;33.93;94961.06;4995371;28;7830;-63
2022/07/18 04:03:54;;;;;;;;;;;;;;;27.39;33.83;94954.31;4995055;28;7206;-63
2022/07/18 04:06:27;;;;;;;;;;;;;;;27.40;33.78;94966.09;5008313;28;9361;-63
2022/07/18 04:09:03;;;;;;;;;;;;;;;27.40;33.76;94968.88;5011146;28;7386;-63
2022/07/18 04:11:33;;;;;;;;;;;;;;;27.39;33.87;94970.13;4974154;28;9403;-63
2022/07/18 04:14:04;;;;;;;;;;;;;;;27.34;33.44;94962.59;5011672;28;8830;-63
2022/07/18 04:16:31;;;;;;;;;;;;;;;27.38;33.42;94969.34;5008335;28;9034;-63
2022/07/18 04:18:57;;;;;;;;;;;;;;;27.36;33.38;94969.13;4993231;28;8185;-63
2022/07/18 04:21:23;;;;;;;;;;;;;;;27.35;33.91;94975.13;4983116;28;7074;-63
2022/07/18 04:23:58;;;;;;;;;;;;;;;27.35;34.25;94977.91;5014342;28;7185;-64
2022/07/18 04:26:37;;;;;;;;;;;;;;;27.31;34.03;94975.41;5007081;28;9112;-63
2022/07/18 04:29:12;;;;;;;;;;;;;;;27.30;33.61;94978.66;4990211;28;9247;-63
2022/07/18 04:31:49;;;;;;;;;;;;;;;27.27;34.12;94980.44;4977459;28;8996;-63
2022/07/18 04:34:17;;;;;;;;;;;;;;;27.26;33.80;94978.19;4997816;28;9090;-63
2022/07/18 04:36:46;;;;;;;;;;;;;;;27.27;34.67;94983.22;5013415;28;7456;-63
2022/07/18 04:39:13;;;;;;;;;;;;;;;27.25;34.23;94980.19;5019161;28;7417;-63
2022/07/18 04:41:39;;;;;;;;;;;;;;;27.27;34.41;94979.69;4984177;28;6985;-63
2022/07/18 04:44:05;;;;;;;;;;;;;;;27.26;34.24;94978.94;4993905;28;9054;-64
2022/07/18 04:46:33;;;;;;;;;;;;;;;27.25;33.77;94987.72;5009206;28;7157;-63
2022/07/18 04:48:59;;;;;;;;;;;;;;;27.24;33.67;94975.94;4995375;28;7032;-63
2022/07/18 04:51:32;;;;;;;;;;;;;;;27.23;34.64;94979.94;4993634;28;9058;-63
2022/07/18 04:53:59;;;;;;;;;;;;;;;27.23;34.44;94979.94;5007214;28;9374;-63
2022/07/18 04:56:25;;;;;;;;;;;;;;;27.22;34.63;94977.69;4984863;28;9059;-63
2022/07/18 04:58:51;;;;;;;;;;;;;;;27.21;34.25;94990.75;4989314;28;7249;-63
2022/07/18 05:01:17;;;;;;;;;;;;;;;27.24;34.32;94980.69;4986472;28;7261;-63
2022/07/18 05:03:45;;;;;;;;;;;;;;;27.22;34.53;94978.44;4988994;28;7003;-63
2022/07/18 05:06:11;;;;;;;;;;;;;;;27.24;34.87;94975.16;5007362;28;7191;-64
2022/07/18 05:08:43;;;;;;;;;;;;;;;27.24;34.78;94969.66;4988403;28;6974;-63
2022/07/18 05:11:12;;;;;;;;;;;;;;;27.24;34.65;94970.41;5001858;28;6986;-63
2022/07/18 05:13:42;;;;;;;;;;;;;;;27.23;34.43;94970.94;4986513;28;7100;-63
2022/07/18 05:16:29;;;;;;;;;;;;;;;27.24;34.60;94980.69;5001198;28;9239;-63
2022/07/18 05:18:58;;;;;;;;;;;;;;;27.25;34.75;94976.69;4998157;28;7127;-63
2022/07/18 05:21:25;;;;;;;;;;;;;;;27.24;34.70;94975.16;4993019;28;6987;-63
2022/07/18 05:23:54;;;;;;;;;;;;;;;27.25;35.21;94973.94;4987177;28;8926;-63
2022/07/18 05:26:22;;;;;;;;;;;;;;;27.24;34.55;94978.69;4997356;28;9491;-63
2022/07/18 05:28:48;;;;;;;;;;;;;;;27.23;35.37;94968.88;4980933;28;7053;-63
2022/07/18 05:31:18;;;;;;;;;;;;;;;27.21;35.27;94971.41;4989471;28;8699;-64
2022/07/18 05:33:44;;;;;;;;;;;;;;;27.23;35.44;94977.19;4993139;28;6991;-63
2022/07/18 05:36:10;;;;;;;;;;;;;;;27.23;35.40;94974.41;5006587;28;9053;-63
2022/07/18 05:38:44;;;;;;;;;;;;;;;27.22;35.52;94966.66;4999416;28;7645;-63
2022/07/18 05:41:31;;;;;;;;;;;;;;;27.23;35.98;94973.69;5009923;28;7882;-63
2022/07/18 05:43:57;;;;;;;;;;;;;;;27.21;35.74;94967.91;4997221;28;9035;-63
2022/07/18 05:46:23;;;;;;;;;;;;;;;27.19;36.42;94968.41;4990153;28;7063;-63
2022/07/18 05:48:49;;;;;;;;;;;;;;;27.18;36.38;94966.91;5003271;28;9012;-63
2022/07/18 05:51:18;;;;;;;;;;;;;;;27.18;36.20;94964.16;4995104;28;6954;-63
2022/07/18 05:53:50;;;;;;;;;;;;;;;27.19;36.68;94968.41;4992095;28;8937;-63
2022/07/18 05:56:22;;;;;;;;;;;;;;;27.19;36.89;94967.66;4998507;28;9475;-63
2022/07/18 05:58:49;;;;;;;;;;;;;;;27.18;36.55;94963.41;4994831;28;7379;-63
2022/07/18 06:01:45;;;;;;;;;;;;;;;27.22;36.74;94964.63;4996563;28;7319;-63
2022/07/18 06:04:15;;;;;;;;;;;;;;;27.21;37.05;94965.88;4930444;29;7259;-64
2022/07/18 06:06:41;;;;;;;;;;;;;;;27.23;37.13;94957.84;4931412;29;7252;-63
2022/07/18 06:09:15;;;;;;;;;;;;;;;27.25;37.34;94960.84;4945117;29;6974;-63
2022/07/18 06:11:44;;;;;;;;;;;;;;;27.26;37.19;94965.13;4944036;29;9472;-63
2022/07/18 06:14:12;;;;;;;;;;;;;;;27.25;38.07;94955.31;4944580;29;9046;-63
2022/07/18 06:16:41;;;;;;;;;;;;;;;27.24;37.74;94959.34;4946335;29;8750;-63
2022/07/18 06:19:07;;;;;;;;;;;;;;;27.26;37.40;94956.09;4929061;29;7119;-63
2022/07/18 06:21:33;;;;;;;;;;;;;;;27.27;37.88;94955.59;4927463;29;7247;-63
2022/07/18 06:24:01;;;;;;;;;;;;;;;27.29;37.92;94961.34;4925234;29;7257;-63
2022/07/18 06:26:30;;;;;;;;;;;;;;;27.29;38.24;94950.31;4942558;29;7244;-62
2022/07/18 06:29:00;;;;;;;;;;;;;;;27.31;37.93;94947.78;4929654;29;7013;-62
2022/07/18 06:31:26;;;;;;;;;;;;;;;27.33;38.39;94950.78;4925098;29;6976;-61
2022/07/18 06:33:52;;;;;;;;;;;;;;;27.35;38.21;94947.50;4941029;29;8084;-62
2022/07/18 06:36:23;;;;;;;;;;;;;;;27.38;37.88;94943.78;4942701;29;7231;-62
2022/07/18 06:38:54;;;;;;;;;;;;;;;27.39;38.10;94943.25;4947318;29;7317;-62
2022/07/18 06:41:27;;;;;;;;;;;;;;;27.41;38.12;94937.97;4972029;28;7430;-62
2022/07/18 06:43:53;;;;;;;;;;;;;;;27.40;38.14;94938.47;5007917;28;7119;-61
2022/07/18 06:46:20;;;;;;;;;;;;;;;27.42;38.25;94939.47;5006930;28;7602;-62
2022/07/18 06:48:45;;;;;;;;;;;;;;;27.44;38.34;94931.44;4975986;28;9405;-61
2022/07/18 06:51:11;;;;;;;;;;;;;;;27.47;37.70;94935.19;4985580;28;7289;-61
2022/07/18 06:53:37;;;;;;;;;;;;;;;27.47;38.37;94935.91;5005537;28;8705;-61
2022/07/18 06:56:05;;;;;;;;;;;;;;;27.48;38.06;94931.16;4990061;28;9118;-61
2022/07/18 06:58:42;;;;;;;;;;;;;;;27.48;38.40;94939.44;5010587;28;9258;-61
2022/07/18 07:01:10;;;;;;;;;;;;;;;27.49;42.24;94941.69;4981936;28;7044;-62
2022/07/18 07:03:37;;;;;;;;;;;;;;;27.49;39.98;94936.16;5003922;28;6992;-62
2022/07/18 07:06:15;;;;;;;;;;;;;;;27.50;39.09;94945.97;5008249;28;7284;-61
2022/07/18 07:09:07;;;;;;;;;;;;;;;27.49;39.59;94943.72;5005432;28;7198;-61
2022/07/18 07:11:45;;;;;;;;;;;;;;;27.50;39.55;94948.72;4994308;28;9234;-61
2022/07/18 07:14:12;;;;;;;;;;;;;;;27.53;38.84;94952.47;4995492;28;7234;-61
2022/07/18 07:16:38;;;;;;;;;;;;;;;27.51;38.62;94949.47;4985419;28;7435;-62
2022/07/18 07:19:09;;;;;;;;;;;;;;;27.52;38.83;94946.19;5012100;28;9149;-62
2022/07/18 07:21:49;;;;;;;;;;;;;;;27.53;40.02;94947.69;4994280;28;7049;-62
2022/07/18 07:24:41;;;;;;;;;;;;;;;27.56;39.35;94943.91;4993386;28;7363;-63
2022/07/18 07:27:20;;;;;;;;;;;;;;;27.55;39.26;94936.91;4989616;28;9363;-62
2022/07/18 07:29:52;;;;;;;;;;;;;;;27.55;39.25;94936.16;5000386;28;7360;-63
2022/07/18 07:32:18;;;;;;;;;;;;;;;27.54;39.64;94934.63;5007882;28;7056;-63
2022/07/18 07:34:55;;;;;;;;;;;;;;;27.56;42.62;94934.88;4994061;28;7346;-63
2022/07/18 07:37:22;;;;;;;;;;;;;;;27.54;42.27;94938.16;5017148;28;7111;-64
2022/07/18 07:39:49;;;;;;;;;;;;;;;27.58;42.60;94944.16;4989990;28;7244;-63
2022/07/18 07:42:20;;;;;;;;;;;;;;;27.58;41.60;94935.88;4997054;28;7900;-63
2022/07/18 07:44:48;;;;;;;;;;;;;;;27.61;42.49;94937.63;4993095;28;9141;-62
2022/07/18 07:47:16;;;;;;;;;;;;;;;27.64;41.84;94933.81;4980026;28;9134;-62
2022/07/18 07:49:45;;;;;;;;;;;;;;;27.66;42.01;94932.56;4980618;28;9630;-62
2022/07/18 07:52:14;;;;;;;;;;;;;;;27.66;41.96;94933.31;5007406;28;9133;-63
2022/07/18 07:54:47;;;;;;;;;;;;;;;27.64;41.74;94936.56;4994462;28;7090;-62
2022/07/18 07:57:13;;;;;;;;;;;;;;;27.64;41.82;94935.84;4991940;28;9227;-63
2022/07/18 07:59:39;;;;;;;;;;;;;;;27.64;41.36;94933.09;5009119;28;9032;-62
2022/07/18 08:02:06;;;;;;;;;;;;;;;27.64;41.55;94933.81;5005846;28;7830;-63
2022/07/18 08:04:37;;;;;;;;;;;;;;;27.64;41.29;94942.09;4987822;28;8855;-63
2022/07/18 08:07:05;;;;;;;;;;;;;;;27.65;41.15;94951.16;4984968;28;7235;-63
2022/07/18 08:09:32;;;;;;;;;;;;;;;27.64;41.41;94946.91;5011037;28;7339;-63
2022/07/18 08:11:58;;;;;;;;;;;;;;;27.66;40.91;94947.13;4992598;28;7590;-63
2022/07/18 08:14:24;;;;;;;;;;;;;;;27.66;41.21;94949.16;5004525;28;9140;-62
2022/07/18 08:16:55;;;;;;;;;;;;;;;27.68;41.19;94952.16;5003970;28;9084;-62
2022/07/18 08:19:30;;;;;;;;;;;;;;;27.64;41.06;94944.88;4974313;28;8595;-62
2022/07/18 08:22:08;;;;;;;;;;;;;;;27.68;40.73;94946.63;4995603;28;7274;-62
2022/07/18 08:24:44;;;;;;;;;;;;;;;27.67;40.74;94942.34;5003571;28;9070;-62
2022/07/18 08:27:11;;;;;;;;;;;;;;;27.68;40.67;94946.63;4980073;28;7241;-62
2022/07/18 08:29:37;;;;;;;;;;;;;;;27.67;40.61;94950.63;5009509;28;7189;-62
2022/07/18 08:32:13;;;;;;;;;;;;;;;27.69;40.56;94950.91;5009994;28;8030;-62
2022/07/18 08:34:39;;;;;;;;;;;;;;;27.69;40.30;94948.13;4991535;28;9067;-62
2022/07/18 08:37:08;;;;;;;;;;;;;;;27.69;40.41;94948.88;4981728;28;7129;-62
2022/07/18 08:39:41;;;;;;;;;;;;;;;27.68;40.00;94941.09;4983583;28;9077;-62
2022/07/18 08:42:08;;;;;;;;;;;;;;;27.70;40.34;94944.09;4992204;28;7274;-62
2022/07/18 08:44:37;;;;;;;;;;;;;;;27.70;39.89;94944.84;4993601;28;7349;-62
2022/07/18 08:47:09;;;;;;;;;;;;;;;27.70;40.02;94936.56;4992684;28;7242;-63
2022/07/18 08:49:38;;;;;;;;;;;;;;;27.71;39.96;94942.84;4983813;28;7399;-63
2022/07/18 08:52:05;;;;;;;;;;;;;;;27.71;40.11;94934.56;4992765;28;7240;-62
2022/07/18 08:54:32;;;;;;;;;;;;;;;27.72;40.09;94936.03;4990964;28;6965;-63
2022/07/18 08:56:58;;;;;;;;;;;;;;;27.70;40.03;94936.56;5011465;28;7234;-62
2022/07/18 08:59:26;;;;;;;;;;;;;;;27.69;40.06;94932.28;5005214;28;8193;-62
2022/07/18 09:01:54;;;;;;;;;;;;;;;27.70;39.40;94933.78;4990047;28;7014;-62
2022/07/18 09:04:47;;;;;;;;;;;;;;;27.71;39.69;94934.56;4997088;28;9136;-62
2022/07/18 09:07:43;;;;;;;;;;;;;;;27.73;39.88;94934.78;4994071;28;7891;-62
2022/07/18 09:10:11;;;;;;;;;;;;;;;27.72;39.76;94931.28;4990801;28;7009;-62
2022/07/18 09:12:55;;;;;;;;;;;;;;;27.71;39.92;94938.03;4994085;28;7448;-62
2022/07/18 09:15:21;;;;;;;;;;;;;;;27.71;39.56;94935.28;4995833;28;9168;-62
2022/07/18 09:17:59;;;;;;;;;;;;;;;27.72;39.56;94936.03;5006798;28;7107;-62
2022/07/18 09:20:27;;;;;;;;;;;;;;;27.72;40.23;94930.50;5010965;28;7230;-62
2022/07/18 09:22:57;;;;;;;;;;;;;;;27.73;40.29;94938.28;5005718;28;7277;-62
2022/07/18 09:25:32;;;;;;;;;;;;;;;27.74;39.63;94934.25;4998237;28;7237;-62
2022/07/18 09:27:58;;;;;;;;;;;;;;;27.76;39.77;94942.03;5001215;28;7288;-62
2022/07/18 09:30:29;;;;;;;;;;;;;;;27.76;39.85;94942.03;4999393;28;8981;-62
2022/07/18 09:33:08;;;;;;;;;;;;;;;27.75;40.14;94941.31;4989132;28;7042;-62
2022/07/18 09:35:54;;;;;;;;;;;;;;;27.76;39.43;94944.81;4994054;28;7025;-62
2022/07/18 09:38:55;;;;;;;;;;;;;;;27.77;40.04;94929.72;4994194;28;7192;-62
2022/07/18 09:41:34;;;;;;;;;;;;;;;27.77;39.33;94936.00;4930865;29;7199;-62
2022/07/18 09:44:14;;;;;;;;;;;;;;;27.77;39.36;94932.50;4938251;28;8744;-62
2022/07/18 09:47:00;;;;;;;;;;;;;;;27.79;39.62;94941.03;4957463;28;8868;-62
2022/07/18 09:49:34;;;;;;;;;;;;;;;27.79;39.05;94941.78;4923728;29;8986;-62
2022/07/18 09:52:08;;;;;;;;;;;;;;;27.79;39.12;94932.72;4921593;29;7214;-62
2022/07/18 09:54:44;;;;;;;;;;;;;;;27.78;39.54;94928.44;4945285;28;7242;-62
2022/07/18 09:57:25;;;;;;;;;;;;;;;27.77;39.43;94927.72;4943969;29;7226;-62
2022/07/18 09:59:53;;;;;;;;;;;;;;;27.81;39.18;94930.19;4927090;29;7061;-62
2022/07/18 10:02:20;;;;;;;;;;;;;;;27.79;39.23;94919.66;4940940;28;7249;-62
2022/07/18 10:04:49;;;;;;;;;;;;;;;27.82;39.76;94928.94;4945375;28;7503;-62
2022/07/18 10:07:15;;;;;;;;;;;;;;;27.83;38.92;94933.19;4926430;29;7391;-62
2022/07/18 10:09:47;;;;;;;;;;;;;;;27.82;39.18;94928.94;4927146;29;9052;-63
2022/07/18 10:12:14;;;;;;;;;;;;;;;27.83;39.36;94936.72;4925219;29;8966;-62
2022/07/18 10:14:41;;;;;;;;;;;;;;;27.86;39.57;94929.44;4925193;29;7085;-62
2022/07/18 10:17:07;;;;;;;;;;;;;;;27.85;39.33;94928.66;4974413;28;7144;-62
2022/07/18 10:19:51;;;;;;;;;;;;;;;27.85;39.46;94928.66;5014363;28;7103;-62
2022/07/18 10:22:28;;;;;;;;;;;;;;;27.86;39.15;94924.63;5012292;28;6965;-62
2022/07/18 10:24:54;;;;;;;;;;;;;;;27.88;39.36;94924.13;5000248;28;7222;-62
2022/07/18 10:27:26;;;;;;;;;;;;;;;27.90;39.12;94919.59;4994751;28;7259;-62
2022/07/18 10:30:30;;;;;;;;;;;;;;;27.90;39.36;94918.84;4997127;28;7036;-62
2022/07/18 10:33:00;;;;;;;;;;;;;;;27.89;39.18;94912.56;5008479;28;7200;-62
2022/07/18 10:36:07;;;;;;;;;;;;;;;27.91;39.39;94923.84;5012372;28;7588;-63
2022/07/18 10:39:02;;;;;;;;;;;;;;;27.91;39.13;94923.09;5007787;28;9303;-62
2022/07/18 10:42:05;;;;;;;;;;;;;;;27.92;39.13;94913.53;5013149;28;7166;-62
2022/07/18 10:44:35;;;;;;;;;;;;;;;27.93;39.23;94917.78;5011319;28;7142;-62
2022/07/18 10:47:05;;;;;;;;;;;;;;;27.93;39.23;94915.78;4997128;28;8789;-62
2022/07/18 10:49:52;;;;;;;;;;;;;;;27.94;39.08;94911.00;4996001;28;7171;-62
2022/07/18 10:52:49;;;;;;;;;;;;;;;27.94;39.04;94920.06;5007496;28;7198;-62
2022/07/18 10:55:21;;;;;;;;;;;;;;;27.95;39.14;94913.25;4893159;29;7082;-62
2022/07/18 10:57:52;;;;;;;;;;;;;;;27.97;39.09;94908.00;4889485;29;7486;-62
2022/07/18 11:00:44;;;;;;;;;;;;;;;27.98;39.04;94917.03;4877559;29;9174;-62
2022/07/18 11:03:15;;;;;;;;;;;;;;;27.98;39.33;94917.78;4890464;29;7326;-62
2022/07/18 11:05:50;;;;;;;;;;;;;;;28.01;38.91;94910.50;4871079;29;7162;-62
2022/07/18 11:08:33;;;;;;;;;;;;;;;28.01;38.96;94913.25;4878964;29;9101;-62
2022/07/18 11:11:03;;;;;;;;;;;;;;;28.00;38.99;94906.97;4870846;29;7217;-62
2022/07/18 11:13:48;;;;;;;;;;;;;;;28.00;38.75;94908.97;4878851;29;7016;-62
2022/07/18 11:16:16;;;;;;;;;;;;;;;28.01;38.82;94913.25;4877899;29;6958;-63
2022/07/18 11:18:46;;;;;;;;;;;;;;;28.00;38.88;94906.97;4887694;29;7239;-63
2022/07/18 11:21:34;;;;;;;;;;;;;;;28.02;38.82;94909.22;4891329;29;9110;-63
2022/07/18 11:24:09;;;;;;;;;;;;;;;28.01;38.83;94913.25;4878848;29;6991;-63
2022/07/18 11:26:46;;;;;;;;;;;;;;;28.04;38.44;94909.44;4879227;29;7033;-63
2022/07/18 11:29:47;;;;;;;;;;;;;;;28.05;38.92;94908.19;4881792;29;7530;-62
2022/07/18 11:32:22;;;;;;;;;;;;;;;28.05;38.85;94905.44;4959288;28;7010;-63
2022/07/18 11:35:13;;;;;;;;;;;;;;;28.04;39.01;94901.91;5007748;28;7194;-63
2022/07/18 11:37:53;;;;;;;;;;;;;;;28.05;38.76;94886.06;5010803;28;7148;-62
2022/07/18 11:40:50;;;;;;;;;;;;;;;28.06;38.96;94895.84;5008813;28;7255;-61
2022/07/18 11:43:20;;;;;;;;;;;;;;;28.07;38.68;94889.06;4898873;29;8717;-62
2022/07/18 11:45:46;;;;;;;;;;;;;;;28.07;38.46;94892.59;4899128;29;7314;-62
2022/07/18 11:48:21;;;;;;;;;;;;;;;28.07;38.85;94884.28;4899318;29;9173;-62
2022/07/18 11:50:47;;;;;;;;;;;;;;;28.07;38.56;94887.06;4898178;29;7418;-62
2022/07/18 11:53:14;;;;;;;;;;;;;;;28.07;38.54;94884.28;4903431;29;9575;-62
2022/07/18 11:56:03;;;;;;;;;;;;;;;28.10;38.65;94888.06;4904576;29;7064;-62
2022/07/18 11:58:38;;;;;;;;;;;;;;;28.10;38.80;94879.75;4898564;29;6861;-62
2022/07/18 12:01:07;;;;;;;;;;;;;;;28.08;38.81;94883.00;4911725;29;7288;-62
2022/07/18 12:03:51;;;;;;;;;;;;;;;28.12;38.59;94877.22;4885923;29;7322;-62
2022/07/18 12:07:06;;;;;;;;;;;;;;;28.13;38.75;94882.22;4891455;29;7231;-62
2022/07/18 12:09:46;;;;;;;;;;;;;;;28.15;38.52;94873.41;4826324;29;9026;-62
2022/07/18 12:12:37;;;;;;;;;;;;;;;28.17;38.75;94876.41;4825971;29;7521;-63
2022/07/18 12:15:05;;;;;;;;;;;;;;;28.18;38.29;94877.91;4838517;29;7840;-62
2022/07/18 12:17:46;;;;;;;;;;;;;;;28.19;38.11;94876.63;4826052;29;7217;-62
2022/07/18 12:20:22;;;;;;;;;;;;;;;28.19;38.49;94869.09;4895273;29;7668;-62
2022/07/18 12:23:07;;;;;;;;;;;;;;;28.19;38.35;94869.09;4916987;29;7073;-62
2022/07/18 12:25:43;;;;;;;;;;;;;;;28.21;38.37;94874.84;4895075;29;7110;-62
2022/07/18 12:28:39;;;;;;;;;;;;;;;28.22;38.67;94864.53;4895359;29;7302;-62
2022/07/18 12:31:49;;;;;;;;;;;;;;;28.22;38.65;94870.06;4920523;29;7239;-62
2022/07/18 12:34:19;;;;;;;;;;;;;;;28.22;38.10;94870.84;4916332;29;7033;-62
2022/07/18 12:36:57;;;;;;;;;;;;;;;28.22;37.96;94870.84;4911126;29;9194;-62
2022/07/18 12:39:33;;;;;;;;;;;;;;;28.21;38.52;94863.78;4895805;29;9467;-62
2022/07/18 12:42:00;;;;;;;;;;;;;;;28.24;38.13;94870.31;4895725;29;8786;-62
2022/07/18 12:44:33;;;;;;;;;;;;;;;28.25;38.16;94874.59;4906176;29;7281;-63
2022/07/18 12:46:59;;;;;;;;;;;;;;;28.26;38.69;94865.00;4990563;28;7215;-62
2022/07/18 12:49:24;;;;;;;;;;;;;;;28.25;38.95;94869.06;4991659;28;7031;-62
2022/07/18 12:51:57;;;;;;;;;;;;;;;28.29;38.33;94867.50;4992037;28;8738;-63
2022/07/18 12:54:25;;;;;;;;;;;;;;;28.29;38.55;94864.75;4995813;28;7232;-62
2022/07/18 12:56:51;;;;;;;;;;;;;;;28.30;38.67;94862.69;4999797;28;9060;-62
2022/07/18 12:59:17;;;;;;;;;;;;;;;28.33;38.65;94864.44;4994331;28;9011;-62
2022/07/18 13:01:45;;;;;;;;;;;;;;;28.31;38.69;94853.16;5006617;28;7142;-62
2022/07/18 13:04:11;;;;;;;;;;;;;;;28.34;38.48;94854.88;4989279;28;7043;-61
2022/07/18 13:06:41;;;;;;;;;;;;;;;28.35;38.56;94857.13;5007638;28;7246;-62
2022/07/18 13:09:10;;;;;;;;;;;;;;;28.38;38.57;94857.34;4992350;28;7227;-62
2022/07/18 13:11:41;;;;;;;;;;;;;;;28.38;38.42;94858.13;5010534;28;9466;-61
2022/07/18 13:14:09;;;;;;;;;;;;;;;28.38;38.47;94840.75;4980211;28;7278;-62
2022/07/18 13:16:35;;;;;;;;;;;;;;;28.39;38.37;94837.47;4991086;28;9097;-62
2022/07/18 13:19:01;;;;;;;;;;;;;;;28.38;38.50;94843.53;5006875;28;9389;-62
2022/07/18 13:21:27;;;;;;;;;;;;;;;28.42;38.63;94841.22;5004926;28;7046;-62
2022/07/18 13:23:53;;;;;;;;;;;;;;;28.43;38.54;94837.91;4999384;28;6999;-61
2022/07/18 13:26:21;;;;;;;;;;;;;;;28.44;38.55;94838.69;5007533;28;7216;-62
2022/07/18 13:28:47;;;;;;;;;;;;;;;28.45;38.50;94834.66;5004233;28;7447;-62
2022/07/18 13:31:13;;;;;;;;;;;;;;;28.46;38.83;94836.91;5017383;28;7370;-62